Time;durP1;ratioP1;P1;durP2;ratioP2;P2;SDS_P1;SDS_P2;PMS_P1;PMS_P2;Temp;Humidity;BMP_temperature;BMP_pressure;BME280_temperature;BME280_humidity;BME280_pressure;Samples;Min_cycle;Max_cycle;Signal;HPM_P1;HPM_P2
2023/06/17 00:06:53;;;;;;;5.38;2.53;;;16.40;1.00;;;;;;20643716;28;20033;-43
2023/06/17 00:17:14;;;;;;;3.22;2.28;;;16.20;1.00;;;;;;20651236;28;20117;-43
2023/06/17 00:27:36;;;;;;;7.47;2.50;;;16.20;1.00;;;;;;20645740;28;20042;-43
2023/06/17 00:37:57;;;;;;;3.65;2.30;;;16.00;1.00;;;;;;20646509;28;20603;-43
2023/06/17 00:48:18;;;;;;;4.32;2.70;;;15.90;1.00;;;;;;20645607;28;20066;-43
2023/06/17 00:58:40;;;;;;;5.07;3.28;;;15.70;1.00;;;;;;20646911;28;20048;-43
2023/06/17 01:09:05;;;;;;;6.75;3.65;;;15.70;1.00;;;;;;20645177;28;20076;-43
2023/06/17 01:19:26;;;;;;;6.43;3.90;;;15.60;1.00;;;;;;20646490;28;20054;-43
2023/06/17 01:29:48;;;;;;;6.68;4.32;;;15.50;1.00;;;;;;20646617;28;20074;-43
2023/06/17 01:40:13;;;;;;;6.05;4.00;;;15.40;1.00;;;;;;20653692;28;20958;-43
2023/06/17 01:50:34;;;;;;;6.60;4.40;;;15.30;1.00;;;;;;20659925;28;20044;-43
2023/06/17 02:00:56;;;;;;;8.75;4.75;;;15.20;1.00;;;;;;20652657;28;20076;-43
2023/06/17 02:11:17;;;;;;;8.00;4.72;;;15.20;1.00;;;;;;20655346;28;20080;-43
2023/06/17 02:21:39;;;;;;;8.57;5.35;;;15.00;1.00;;;;;;20653473;28;20041;-43
2023/06/17 02:32:00;;;;;;;8.45;5.18;;;14.90;1.00;;;;;;20657661;28;20048;-43
2023/06/17 02:42:21;;;;;;;9.52;5.93;;;14.70;1.00;;;;;;20656566;28;20128;-43
2023/06/17 02:52:47;;;;;;;11.65;6.88;;;14.60;1.00;;;;;;20656488;28;21118;-43
2023/06/17 03:03:11;;;;;;;13.70;7.55;;;14.50;1.00;;;;;;20659539;28;20057;-43
2023/06/17 03:13:33;;;;;;;12.32;7.95;;;14.40;1.00;;;;;;20647891;28;20461;-44
2023/06/17 03:23:56;;;;;;;11.52;7.85;;;14.30;1.00;;;;;;20648540;28;20068;-43
2023/06/17 03:34:17;;;;;;;14.20;8.57;;;14.10;1.00;;;;;;20646577;28;20053;-43
2023/06/17 03:44:39;;;;;;;13.90;9.27;;;14.00;1.00;;;;;;20652523;28;20064;-43
2023/06/17 03:55:01;;;;;;;14.25;9.60;;;14.00;1.00;;;;;;20648991;28;20053;-43
2023/06/17 04:05:23;;;;;;;15.55;9.98;;;14.00;1.00;;;;;;20648618;28;20049;-43
2023/06/17 04:15:45;;;;;;;20.10;12.82;;;14.00;1.00;;;;;;20647591;28;20073;-43
2023/06/17 04:26:07;;;;;;;19.83;12.40;;;14.00;1.00;;;;;;20651439;28;20077;-43
2023/06/17 04:36:29;;;;;;;19.63;12.70;;;13.90;1.00;;;;;;20651767;28;20775;-43
2023/06/17 04:46:50;;;;;;;22.33;13.35;;;14.10;1.00;;;;;;20645552;28;20030;-43
2023/06/17 04:57:13;;;;;;;20.63;13.55;;;14.30;1.00;;;;;;20643348;28;20068;-43
2023/06/17 05:07:34;;;;;;;19.25;13.45;;;14.80;1.00;;;;;;20645554;28;20647;-43
2023/06/17 05:17:56;;;;;;;20.42;13.85;;;15.20;1.00;;;;;;20662245;28;20498;-43
2023/06/17 05:28:18;;;;;;;19.55;12.27;;;15.50;1.00;;;;;;20659187;28;20145;-43
2023/06/17 05:38:39;;;;;;;15.48;10.40;;;15.90;1.00;;;;;;20660320;28;20057;-43
2023/06/17 05:49:00;;;;;;;11.85;7.85;;;16.30;1.00;;;;;;20657277;28;20037;-43
2023/06/17 05:59:23;;;;;;;14.52;10.15;;;16.70;1.00;;;;;;20655420;28;20136;-43
2023/06/17 06:09:45;;;;;;;14.25;10.88;;;17.20;1.00;;;;;;20604293;28;20043;-43
2023/06/17 06:20:07;;;;;;;19.65;10.93;;;17.40;1.00;;;;;;20575659;28;20039;-44
2023/06/17 06:30:29;;;;;;;18.77;11.35;;;17.70;1.00;;;;;;20596051;28;20065;-43
2023/06/17 06:40:50;;;;;;;14.57;9.80;;;18.10;1.00;;;;;;20585226;28;20038;-43
2023/06/17 06:51:13;;;;;;;13.02;9.65;;;18.30;1.00;;;;;;20577989;28;20073;-43
2023/06/17 07:01:34;;;;;;;14.70;8.75;;;18.50;1.00;;;;;;20582389;28;20501;-44
2023/06/17 07:11:55;;;;;;;12.68;8.65;;;18.80;1.00;;;;;;20546505;28;20125;-43
2023/06/17 07:22:17;;;;;;;7.88;5.63;;;18.80;1.00;;;;;;20573383;28;20058;-44
2023/06/17 07:32:38;;;;;;;8.32;5.80;;;18.90;1.00;;;;;;20562092;28;20041;-43
2023/06/17 07:42:59;;;;;;;8.15;4.82;;;19.20;1.00;;;;;;20572753;28;20050;-44
2023/06/17 07:53:21;;;;;;;8.45;4.50;;;19.60;1.00;;;;;;20569659;28;20034;-44
2023/06/17 08:03:43;;;;;;;7.13;4.50;;;19.90;1.00;;;;;;20580581;28;21208;-44
2023/06/17 08:14:04;;;;;;;9.93;5.25;;;20.20;1.00;;;;;;20569041;28;20426;-43
2023/06/17 08:24:26;;;;;;;7.10;4.10;;;20.50;1.00;;;;;;20569265;28;20622;-43
2023/06/17 08:34:47;;;;;;;6.00;4.40;;;20.90;1.00;;;;;;20563527;28;20042;-44
2023/06/17 08:45:09;;;;;;;6.68;4.50;;;21.30;1.00;;;;;;20580962;28;20057;-44
2023/06/17 08:55:30;;;;;;;6.03;3.50;;;21.80;1.00;;;;;;20593401;28;20038;-44
2023/06/17 09:05:53;;;;;;;6.65;3.72;;;22.00;1.00;;;;;;20598078;28;20045;-43
2023/06/17 09:16:14;;;;;;;5.13;2.95;;;22.30;1.00;;;;;;20617682;28;20056;-43
2023/06/17 09:26:44;;;;;;;8.23;3.10;;;22.70;1.00;;;;;;20598253;28;20347;-43
2023/06/17 09:37:06;;;;;;;4.80;3.03;;;23.10;1.00;;;;;;20586669;28;20560;-44
2023/06/17 09:47:32;;;;;;;6.22;3.28;;;23.40;1.00;;;;;;20589163;28;20034;-44
2023/06/17 09:57:54;;;;;;;4.90;2.85;;;23.90;1.00;;;;;;20594917;28;20049;-44
2023/06/17 10:08:15;;;;;;;5.20;2.40;;;24.20;1.00;;;;;;20594188;28;20146;-44
2023/06/17 10:18:39;;;;;;;5.85;2.35;;;24.50;1.00;;;;;;20599536;28;20046;-44
2023/06/17 10:29:06;;;;;;;5.35;3.17;;;24.80;1.00;;;;;;20567361;28;20043;-44
2023/06/17 10:39:27;;;;;;;4.20;3.20;;;24.80;1.00;;;;;;20607271;28;20313;-44
2023/06/17 10:49:51;;;;;;;3.80;2.20;;;24.80;1.00;;;;;;20596994;28;20034;-44
2023/06/17 11:00:13;;;;;;;5.38;2.80;;;25.10;1.00;;;;;;20576714;28;20474;-44
2023/06/17 11:10:34;;;;;;;3.55;2.33;;;25.20;1.00;;;;;;20595297;28;20074;-44
2023/06/17 11:20:55;;;;;;;4.13;2.22;;;25.90;1.00;;;;;;20598373;28;20034;-44
2023/06/17 11:31:17;;;;;;;4.47;2.58;;;26.30;1.00;;;;;;20577869;28;20069;-44
2023/06/17 11:41:39;;;;;;;3.92;2.20;;;26.20;1.00;;;;;;20570826;28;20062;-44
2023/06/17 11:52:08;;;;;;;3.20;2.38;;;26.20;1.00;;;;;;20569536;28;20041;-44
2023/06/17 12:02:30;;;;;;;3.33;2.28;;;26.60;1.00;;;;;;20564447;28;20045;-44
2023/06/17 12:12:56;;;;;;;3.42;1.90;;;26.90;1.00;;;;;;20577937;28;20771;-44
2023/06/17 12:23:17;;;;;;;2.90;1.90;;;27.20;1.00;;;;;;20560316;28;20041;-44
2023/06/17 12:33:39;;;;;;;3.45;1.88;;;27.80;1.00;;;;;;20563771;28;20038;-44
2023/06/17 12:44:00;;;;;;;3.00;1.88;;;28.10;1.00;;;;;;20564043;28;20051;-44
2023/06/17 12:54:23;;;;;;;2.70;2.00;;;28.40;1.00;;;;;;20562640;28;20081;-44
2023/06/17 13:04:44;;;;;;;4.82;2.13;;;28.20;1.00;;;;;;20555268;28;20045;-44
2023/06/17 13:15:06;;;;;;;2.42;1.85;;;27.80;1.00;;;;;;20564440;28;20057;-44
2023/06/17 13:25:27;;;;;;;3.80;2.25;;;27.60;1.00;;;;;;20601434;28;20034;-44
2023/06/17 13:35:49;;;;;;;3.05;1.92;;;27.90;1.00;;;;;;20606418;28;20442;-44
2023/06/17 13:46:11;;;;;;;3.05;1.98;;;27.90;1.00;;;;;;20599713;28;20778;-44
2023/06/17 13:56:33;;;;;;;3.63;2.00;;;27.60;1.00;;;;;;20608201;28;20038;-44
2023/06/17 14:06:54;;;;;;;3.88;1.77;;;27.30;1.00;;;;;;20596858;28;20045;-44
2023/06/17 14:17:16;;;;;;;3.10;2.20;;;27.40;1.00;;;;;;20600274;28;20096;-44
2023/06/17 14:27:39;;;;;;;3.95;2.42;;;27.90;1.00;;;;;;20601174;28;20053;-44
2023/06/17 14:38:00;;;;;;;3.97;1.85;;;27.40;1.00;;;;;;20601261;28;20053;-44
2023/06/17 14:48:22;;;;;;;3.60;1.80;;;27.50;1.00;;;;;;20592807;28;20038;-44
2023/06/17 14:58:43;;;;;;;3.38;2.10;;;27.60;1.00;;;;;;20595773;28;20041;-44
2023/06/17 15:09:24;;;;;;;3.75;1.92;;;27.60;1.00;;;;;;20583871;28;20054;-44
2023/06/17 15:19:46;;;;;;;3.47;1.77;;;27.40;1.00;;;;;;20589847;28;20045;-44
2023/06/17 15:30:08;;;;;;;2.63;1.83;;;27.40;1.00;;;;;;20584504;28;20042;-44
2023/06/17 15:40:30;;;;;;;3.38;1.98;;;27.20;1.00;;;;;;20594709;28;20066;-44
2023/06/17 15:50:51;;;;;;;2.90;1.95;;;27.20;1.00;;;;;;20580942;28;20517;-44
2023/06/17 16:01:13;;;;;;;4.60;2.60;;;27.30;1.00;;;;;;20597974;28;20061;-44
2023/06/17 16:11:34;;;;;;;3.05;1.80;;;27.10;1.00;;;;;;20598381;28;20045;-44
2023/06/17 16:21:56;;;;;;;5.13;3.10;;;27.00;1.00;;;;;;20582212;28;20038;-44
2023/06/17 16:32:17;;;;;;;11.50;6.35;;;27.00;1.00;;;;;;20597109;28;20494;-44
2023/06/17 16:42:39;;;;;;;5.13;1.88;;;26.90;1.00;;;;;;20577616;28;20046;-44
2023/06/17 16:53:00;;;;;;;3.30;2.05;;;26.30;1.00;;;;;;20580921;28;20545;-44
2023/06/17 17:03:22;;;;;;;3.22;2.03;;;25.90;1.00;;;;;;20600389;28;20038;-44
2023/06/17 17:13:43;;;;;;;6.88;3.40;;;25.80;1.00;;;;;;20608949;28;20050;-44
2023/06/17 17:24:05;;;;;;;4.32;2.95;;;25.70;1.00;;;;;;20587714;28;20596;-44
2023/06/17 17:34:26;;;;;;;4.85;3.28;;;25.50;1.00;;;;;;20601879;28;20042;-44
2023/06/17 17:44:47;;;;;;;4.32;3.38;;;25.40;1.00;;;;;;20599695;28;20055;-44
2023/06/17 17:55:09;;;;;;;5.55;3.67;;;25.20;1.00;;;;;;20600129;28;20462;-44
2023/06/17 18:05:30;;;;;;;5.50;3.85;;;25.00;1.00;;;;;;20603971;28;20268;-44
2023/06/17 18:15:52;;;;;;;9.55;3.90;;;24.80;1.00;;;;;;20593640;28;20046;-44
2023/06/17 18:26:13;;;;;;;5.30;3.97;;;24.70;1.00;;;;;;20597695;28;20034;-44
2023/06/17 18:36:34;;;;;;;6.65;3.90;;;24.60;1.00;;;;;;20598958;28;20038;-44
2023/06/17 18:46:56;;;;;;;5.63;4.10;;;24.40;1.00;;;;;;20599742;28;20408;-44
2023/06/17 18:57:17;;;;;;;6.47;3.90;;;24.20;1.00;;;;;;20596000;28;20045;-44
2023/06/17 19:07:43;;;;;;;7.43;4.38;;;24.20;1.00;;;;;;20592516;28;20066;-44
2023/06/17 19:18:05;;;;;;;5.95;3.92;;;24.00;1.00;;;;;;20595135;28;20046;-44
2023/06/17 19:28:26;;;;;;;6.25;4.18;;;23.90;1.00;;;;;;20588582;28;20601;-44
2023/06/17 19:38:47;;;;;;;7.53;4.00;;;23.80;1.00;;;;;;20589689;28;20079;-44
2023/06/17 19:49:09;;;;;;;5.55;4.35;;;23.60;1.00;;;;;;20596359;28;20435;-44
2023/06/17 19:59:30;;;;;;;5.88;4.25;;;23.40;1.00;;;;;;20579365;28;20034;-44
2023/06/17 20:09:52;;;;;;;6.47;4.00;;;23.30;1.00;;;;;;20592813;28;20034;-44
2023/06/17 20:20:13;;;;;;;7.47;3.90;;;23.10;1.00;;;;;;20590223;28;20045;-44
2023/06/17 20:30:35;;;;;;;5.97;4.13;;;23.00;1.00;;;;;;20577819;28;20063;-44
2023/06/17 20:40:56;;;;;;;5.70;3.67;;;22.80;1.00;;;;;;20582655;28;20514;-44
2023/06/17 20:51:17;;;;;;;8.65;4.18;;;22.70;1.00;;;;;;20597810;28;20158;-44
2023/06/17 21:01:38;;;;;;;6.30;3.88;;;22.50;1.00;;;;;;20589126;28;20058;-44
2023/06/17 21:12:01;;;;;;;4.88;3.97;;;22.40;1.00;;;;;;20595778;28;20039;-44
2023/06/17 21:22:22;;;;;;;6.78;4.05;;;22.30;1.00;;;;;;20589486;28;20618;-44
2023/06/17 21:32:44;;;;;;;5.65;4.40;;;22.30;1.00;;;;;;20588866;28;20046;-44
2023/06/17 21:43:05;;;;;;;9.27;4.05;;;22.20;1.00;;;;;;20580859;28;20334;-44
2023/06/17 21:53:26;;;;;;;6.47;4.80;;;22.20;1.00;;;;;;20590436;28;20052;-48
2023/06/17 22:03:48;;;;;;;5.40;4.28;;;22.20;1.00;;;;;;20592993;28;20069;-51
2023/06/17 22:14:09;;;;;;;5.80;4.03;;;22.10;1.00;;;;;;20587070;28;20034;-44
2023/06/17 22:24:31;;;;;;;8.65;4.07;;;22.00;1.00;;;;;;20602209;28;20045;-44
2023/06/17 22:34:52;;;;;;;5.57;3.95;;;22.00;1.00;;;;;;20587324;28;20038;-44
2023/06/17 22:45:13;;;;;;;5.50;4.35;;;22.00;1.00;;;;;;20594517;28;20054;-44
2023/06/17 22:55:36;;;;;;;7.05;4.50;;;22.00;1.00;;;;;;20587349;28;20066;-44
2023/06/17 23:05:57;;;;;;;5.93;3.97;;;22.00;1.00;;;;;;20589469;28;20034;-44
2023/06/17 23:16:19;;;;;;;5.93;3.70;;;22.00;1.00;;;;;;20580868;28;20042;-44
2023/06/17 23:26:40;;;;;;;7.35;4.35;;;22.00;1.00;;;;;;20585521;28;20849;-44
2023/06/17 23:37:02;;;;;;;6.75;4.32;;;21.90;1.00;;;;;;20583025;28;20409;-44
2023/06/17 23:47:24;;;;;;;5.57;3.97;;;21.80;1.00;;;;;;20578451;28;20042;-44
2023/06/17 23:57:45;;;;;;;7.28;4.03;;;21.80;1.00;;;;;;20577458;28;20053;-44
